Flight Track Log - Related Links

Times and Time Zones

All times are in EDT time to prevent confusion due to time zone crossing. See the AWI3764 flight status page for this flight to view local times or setup timezone preferences in your user account.


Time Position Orientation Groundspeed Altitude Reporting Facility
EDT Latitude Longitude Course Direction KTS MPH feet Rate Location/Type
Sun 03:18:28 PM 43.6556 -70.4358 276° West 202 232 3,300  Level Boston Center
Sun 03:19:29 PM 43.5983 -70.5039 221° Southwest 258 297 6,500 2,777 Climbing Boston Center
Sun 03:20:29 PM 43.5375 -70.5583 213° Southwest 263 303 8,900 1,854 Climbing Boston Center
Sun 03:21:32 PM 43.4675 -70.5933 200° South 269 310 10,300 871 Climbing Boston Center
Sun 03:22:33 PM 43.3853 -70.6297 198° South 297 342 10,700 942 Climbing Boston Center
Sun 03:23:33 PM 43.2936 -70.6667 196° South 341 392 12,200 2,081 Climbing Boston Center
Sun 03:24:37 PM 43.2047 -70.7017 196° South 330 380 15,000 2,352 Climbing Boston Center
Sun 03:25:38 PM 43.1267 -70.7464 203° Southwest 305 351 17,100 1,918 Climbing Boston Center
Sun 03:26:39 PM 43.0436 -70.8061 208° Southwest 313 360 18,900 1,537 Climbing Boston Center
Sun 03:27:39 PM 42.9678 -70.8581 207° Southwest 306 352 20,200 1,366 Climbing Boston Center
Sun 03:28:42 PM 42.8872 -70.9158 208° Southwest 321 369 21,700 1,355 Climbing Boston Center
Sun 03:29:43 PM 42.8031 -70.9706 206° Southwest 332 382 23,000 1,230 Climbing Boston Center
Sun 03:30:44 PM 42.7131 -71.0158 200° South 344 396 24,200 1,171 Climbing Boston Center
Sun 03:31:46 PM 42.6381 -71.0925 217° Southwest 341 392 25,400 1,122 Climbing Boston Center
Sun 03:32:47 PM 42.5606 -71.1689 216° Southwest 345 397 26,500 992 Climbing Boston Center
Sun 03:33:47 PM 42.4825 -71.2444 216° Southwest 346 398 27,400 732 Climbing Boston Center
Sun 03:34:50 PM 42.4039 -71.3236 217° Southwest 351 404 28,000 290 Climbing Boston Center
Sun 03:35:51 PM 42.3089 -71.4169 216° Southwest 361 415 28,000  Level Boston Center
Sun 03:36:51 PM 42.2219 -71.5025 216° Southwest 375 432 28,000  Level Boston Center
Sun 03:37:55 PM 42.1319 -71.5881 215° Southwest 388 447 28,000  Level Boston Center
Sun 03:38:55 PM 42.0461 -71.6725 216° Southwest 387 445 28,000  Level Boston Center
Sun 03:39:56 PM 41.9583 -71.7558 215° Southwest 386 444 28,000  Level Boston Center
Sun 03:40:57 PM 41.8733 -71.8392 216° Southwest 383 441 28,000  Level Boston Center
Sun 03:42:00 PM 41.7894 -71.9194 216° Southwest 379 436 28,000  Level Boston Center
Sun 03:43:00 PM 41.7064 -72.0008 216° Southwest 374 430 28,000  Level Boston Center
Sun 03:44:03 PM 41.6094 -72.0919 215° Southwest 362 417 28,000  Level Boston Center
Sun 03:45:04 PM 41.5275 -72.1711 216° Southwest 366 421 28,000  Level Boston Center
Sun 03:46:05 PM 41.4447 -72.2517 216° Southwest 368 423 28,000  Level Boston Center
Sun 03:47:08 PM 41.3606 -72.3303 215° Southwest 368 423 28,000  Level Boston Center
Sun 03:48:08 PM 41.2781 -72.4089 216° Southwest 367 422 28,000  Level Boston Center
Sun 03:49:09 PM 41.1911 -72.4906 215° Southwest 371 427 28,000  Level Boston Center
Sun 03:50:13 PM 41.1058 -72.5717 216° Southwest 374 430 28,000  Level Boston Center
Sun 03:51:13 PM 41.0219 -72.6511 216° Southwest 371 427 28,000  Level Boston Center
Sun 03:52:14 PM 40.9367 -72.7294 215° Southwest 370 426 28,000  Level Boston Center
Sun 03:53:16 PM 40.8353 -72.8267 216° Southwest 380 437 28,000  Level Boston Center
Sun 03:54:17 PM 40.7511 -72.9039 215° Southwest 370 426 28,000  Level Boston Center
Sun 03:55:20 PM 40.6672 -72.9822 215° Southwest 374 430 28,000  Level Boston Center
Sun 03:56:21 PM 40.5814 -73.0594 214° Southwest 374 430 28,000  Level Boston Center
Sun 03:57:21 PM 40.4956 -73.1383 215° Southwest 377 434 28,000  Level Boston Center
Sun 03:58:24 PM 40.4103 -73.2172 215° Southwest 376 433 28,000  Level Boston Center
Sun 03:59:25 PM 40.3236 -73.2956 215° Southwest 378 435 28,000  Level Boston Center
Sun 04:00:29 PM 40.2192 -73.3908 215° Southwest 381 438 28,000  Level Boston Center
Sun 04:01:30 PM 40.1408 -73.4606 214° Southwest 385 443 28,000  Level Boston Center
Sun 04:02:30 PM 40.0353 -73.5572 215° Southwest 387 445 28,000  Level Boston Center
Sun 04:03:33 PM 39.9467 -73.6378 215° Southwest 387 445 28,000  Level Boston Center
Sun 04:04:28 PM 39.8633 -73.7128 215° Southwest 394 453 28,000  Level Washington Center
Sun 04:05:28 PM 39.7750 -73.7936 215° Southwest 394 453 28,000  Level Washington Center
Sun 04:06:27 PM 39.6844 -73.8711 213° Southwest 394 453 28,000  Level Washington Center
Sun 04:07:27 PM 39.5939 -73.9542 215° Southwest 394 453 28,000 -248 Level Washington Center
Sun 04:08:28 PM 39.5033 -74.0342 214° Southwest 394 453 27,500 -1,008 Descending Washington Center
Sun 04:09:26 PM 39.4064 -74.1197 214° Southwest 400 460 26,000 -1,412 Descending Washington Center
Sun 04:10:27 PM 39.3178 -74.1992 215° Southwest 422 486 24,700 -1,525 Descending Washington Center
Sun 04:11:28 PM 39.2147 -74.2897 214° Southwest 443 510 22,900 -1,800 Descending Washington Center
Sun 04:12:27 PM 39.1175 -74.3744 214° Southwest 443 510 21,100 -1,750 Descending Washington Center
Sun 04:13:28 PM 39.0225 -74.4561 214° Southwest 432 497 19,400 -1,664 Descending Washington Center
Sun 04:14:26 PM 38.9400 -74.5456 220° Southwest 415 478 17,800 -1,576 Descending Washington Center
Sun 04:15:26 PM 38.9117 -74.6711 254° West 371 427 16,300 -1,377 Descending Washington Center
Sun 04:16:28 PM 38.8917 -74.7917 258° West 356 410 15,000 -1,180 Descending Washington Center
Sun 04:17:28 PM 38.8675 -74.9117 256° West 345 397 13,900 -508 Descending Washington Center
Sun 04:18:26 PM 38.8494 -75.0158 257° West 332 382 14,000 51 Climbing Washington Center
Sun 04:19:26 PM 38.8289 -75.1147 255° West 311 358 14,000  Level Washington Center
Sun 04:20:26 PM 38.8106 -75.2161 257° West 299 344 14,000  Level Washington Center
Sun 04:21:28 PM 38.8025 -75.3225 264° West 299 344 14,000 -49 Level Washington Center
Sun 04:22:28 PM 38.7964 -75.4292 266° West 294 338 13,900 -305 Descending Washington Center
Sun 04:23:26 PM 38.7903 -75.5411 266° West 301 346 13,400 -504 Descending Washington Center
Sun 04:24:27 PM 38.7819 -75.6503 264° West 307 353 12,900 -550 Descending Washington Center
Sun 04:25:26 PM 38.7756 -75.7647 266° West 317 365 12,300 -605 Descending Washington Center
Sun 04:26:26 PM 38.7692 -75.8764 266° West 317 365 11,700 -600 Descending Washington Center
Sun 04:27:26 PM 38.7583 -75.9831 263° West 317 365 11,100 -347 Descending Washington Center
Sun 04:28:27 PM 38.7581 -76.0894 270° West 311 358 11,000 -443 Descending Washington Center
Sun 04:29:28 PM 38.7658 -76.2039 275° West 300 345 10,200 -500 Descending Washington Center
Sun 04:30:27 PM 38.7736 -76.2947 276° West 285 328 10,000 -101 Descending Washington Center
Sun 04:31:27 PM 38.7836 -76.3800 279° West 265 305 10,000  Level Washington Center
Sun 04:32:28 PM 38.7914 -76.4706 276° West 253 291 10,000  Level Washington Center
Sun 04:33:28 PM 38.7969 -76.5586 275° West 253 291 10,000  Level Washington Center
Sun 04:34:26 PM 38.7983 -76.6411 271° West 253 291 10,000 -320 Level Washington Center
Sun 04:36:54 PM 38.8000 -76.8167 271° West 209 241 8,900 -837 Descending Potomac TRACON
Sun 04:37:54 PM 38.7833 -76.8833 252° West 215 247 7,100 -1,400 Descending Potomac TRACON
Sun 04:38:54 PM 38.7333 -76.9167 207° Southwest 216 249 6,100 -1,143 Descending Potomac TRACON
Sun 04:40:00 PM 38.6833 -76.9167 180° South 184 212 4,700 -952 Descending Potomac TRACON
Sun 04:41:00 PM 38.6333 -76.9333 195° South 189 217 4,100 -496 Descending Potomac TRACON
Sun 04:42:01 PM 38.6333 -77.0000 270° West 171 197 3,700 -496 Descending Potomac TRACON
Sun 04:43:01 PM 38.6833 -77.0167 345° North 176 203 3,100 -700 Descending Potomac TRACON
Sun 04:44:01 PM 38.7333 -77.0333 345° North 174 200 2,300 -850 Descending Potomac TRACON
Sun 04:45:01 PM 38.7833 -77.0333 360° North 171 197 1,400 -850 Descending Potomac TRACON
Sun 04:46:01 PM 38.8167 -77.0333 360° North 137 158 600 -800 Descending Potomac TRACON
Sun 04:48:00 PM 38.8500 -77.0333 356° North  Level FlightAware Approximate
Sun 04:55:00 PM 38.8519 -77.0377 356° North  Level Estimated

Login

Don't have an account? Register now (free) for customized features, flight alerts, and more!